sensor_id;sensor_type;location;lat;lon;timestamp;temperature;humidity
42979;DHT22;28616;44.746;19.678;2023-06-14T00:01:46;17.10;99.90
42979;DHT22;28616;44.746;19.678;2023-06-14T00:04:13;17.10;99.90
42979;DHT22;28616;44.746;19.678;2023-06-14T00:06:42;17.10;99.90
42979;DHT22;28616;44.746;19.678;2023-06-14T00:09:11;17.20;99.90
42979;DHT22;28616;44.746;19.678;2023-06-14T00:11:39;17.20;99.90
42979;DHT22;28616;44.746;19.678;2023-06-14T00:14:05;17.10;99.90
42979;DHT22;28616;44.746;19.678;2023-06-14T00:16:31;17.10;99.90
42979;DHT22;28616;44.746;19.678;2023-06-14T00:18:59;17.10;99.90
42979;DHT22;28616;44.746;19.678;2023-06-14T00:21:25;17.10;99.90
42979;DHT22;28616;44.746;19.678;2023-06-14T00:23:54;17.10;99.90
42979;DHT22;28616;44.746;19.678;2023-06-14T00:26:19;17.10;99.90
42979;DHT22;28616;44.746;19.678;2023-06-14T00:28:45;17.10;99.90
42979;DHT22;28616;44.746;19.678;2023-06-14T00:31:11;17.10;99.90
42979;DHT22;28616;44.746;19.678;2023-06-14T00:33:36;17.00;99.90
42979;DHT22;28616;44.746;19.678;2023-06-14T00:36:02;17.00;99.90
42979;DHT22;28616;44.746;19.678;2023-06-14T00:38:28;17.00;99.90
42979;DHT22;28616;44.746;19.678;2023-06-14T00:40:54;16.90;99.90
42979;DHT22;28616;44.746;19.678;2023-06-14T00:43:20;17.00;99.90
42979;DHT22;28616;44.746;19.678;2023-06-14T00:45:45;16.90;99.90
42979;DHT22;28616;44.746;19.678;2023-06-14T00:48:12;16.90;99.90
42979;DHT22;28616;44.746;19.678;2023-06-14T00:50:39;16.80;99.90
42979;DHT22;28616;44.746;19.678;2023-06-14T00:53:07;16.80;99.90
42979;DHT22;28616;44.746;19.678;2023-06-14T00:55:33;16.80;99.90
42979;DHT22;28616;44.746;19.678;2023-06-14T00:57:59;16.80;99.90
42979;DHT22;28616;44.746;19.678;2023-06-14T01:00:25;16.80;99.90
42979;DHT22;28616;44.746;19.678;2023-06-14T01:02:51;16.80;99.90
42979;DHT22;28616;44.746;19.678;2023-06-14T01:05:17;16.80;99.90
42979;DHT22;28616;44.746;19.678;2023-06-14T01:10:27;16.70;99.90
42979;DHT22;28616;44.746;19.678;2023-06-14T01:13:36;16.70;99.90
42979;DHT22;28616;44.746;19.678;2023-06-14T01:16:03;16.70;99.90
42979;DHT22;28616;44.746;19.678;2023-06-14T01:18:30;16.70;99.90
42979;DHT22;28616;44.746;19.678;2023-06-14T01:20:57;16.60;99.90
42979;DHT22;28616;44.746;19.678;2023-06-14T01:23:23;16.50;99.90
42979;DHT22;28616;44.746;19.678;2023-06-14T01:25:50;16.50;99.90
42979;DHT22;28616;44.746;19.678;2023-06-14T01:28:21;16.50;99.90
42979;DHT22;28616;44.746;19.678;2023-06-14T01:30:52;16.40;99.90
42979;DHT22;28616;44.746;19.678;2023-06-14T01:33:19;16.40;99.90
42979;DHT22;28616;44.746;19.678;2023-06-14T01:35:47;16.40;99.90
42979;DHT22;28616;44.746;19.678;2023-06-14T01:38:15;16.40;99.90
42979;DHT22;28616;44.746;19.678;2023-06-14T01:40:47;16.40;99.90
42979;DHT22;28616;44.746;19.678;2023-06-14T01:43:15;16.40;99.90
42979;DHT22;28616;44.746;19.678;2023-06-14T01:45:42;16.40;99.90
42979;DHT22;28616;44.746;19.678;2023-06-14T01:48:09;16.30;99.90
42979;DHT22;28616;44.746;19.678;2023-06-14T01:50:35;16.40;99.90
42979;DHT22;28616;44.746;19.678;2023-06-14T01:53:01;16.40;99.90
42979;DHT22;28616;44.746;19.678;2023-06-14T01:55:27;16.40;99.90
42979;DHT22;28616;44.746;19.678;2023-06-14T01:57:53;16.30;99.90
42979;DHT22;28616;44.746;19.678;2023-06-14T02:00:20;16.30;99.90
42979;DHT22;28616;44.746;19.678;2023-06-14T02:02:47;16.30;99.90
42979;DHT22;28616;44.746;19.678;2023-06-14T02:05:13;16.30;99.90
42979;DHT22;28616;44.746;19.678;2023-06-14T02:07:38;16.30;99.90
42979;DHT22;28616;44.746;19.678;2023-06-14T02:10:05;16.30;99.90
42979;DHT22;28616;44.746;19.678;2023-06-14T02:12:31;16.30;99.90
42979;DHT22;28616;44.746;19.678;2023-06-14T02:14:57;16.30;99.90
42979;DHT22;28616;44.746;19.678;2023-06-14T02:17:24;16.30;99.90
42979;DHT22;28616;44.746;19.678;2023-06-14T02:19:50;16.30;99.90
42979;DHT22;28616;44.746;19.678;2023-06-14T02:22:16;16.20;99.90
42979;DHT22;28616;44.746;19.678;2023-06-14T02:24:42;16.20;99.90
42979;DHT22;28616;44.746;19.678;2023-06-14T02:27:08;16.10;99.90
42979;DHT22;28616;44.746;19.678;2023-06-14T02:29:37;16.20;99.90
42979;DHT22;28616;44.746;19.678;2023-06-14T02:32:04;16.20;99.90
42979;DHT22;28616;44.746;19.678;2023-06-14T02:34:30;16.20;99.90
42979;DHT22;28616;44.746;19.678;2023-06-14T02:36:56;16.20;99.90
42979;DHT22;28616;44.746;19.678;2023-06-14T02:39:22;16.20;99.90
42979;DHT22;28616;44.746;19.678;2023-06-14T02:41:51;16.20;99.90
42979;DHT22;28616;44.746;19.678;2023-06-14T02:44:18;16.20;99.90
42979;DHT22;28616;44.746;19.678;2023-06-14T02:46:44;16.30;99.90
42979;DHT22;28616;44.746;19.678;2023-06-14T02:49:11;16.30;99.90
42979;DHT22;28616;44.746;19.678;2023-06-14T02:51:37;16.20;99.90
42979;DHT22;28616;44.746;19.678;2023-06-14T02:54:03;16.30;99.90
42979;DHT22;28616;44.746;19.678;2023-06-14T02:56:29;16.30;99.90
42979;DHT22;28616;44.746;19.678;2023-06-14T02:58:55;16.30;99.90
42979;DHT22;28616;44.746;19.678;2023-06-14T03:01:20;16.30;99.90
42979;DHT22;28616;44.746;19.678;2023-06-14T03:03:47;16.30;99.90
42979;DHT22;28616;44.746;19.678;2023-06-14T03:06:13;16.30;99.90
42979;DHT22;28616;44.746;19.678;2023-06-14T03:08:40;16.30;99.90
42979;DHT22;28616;44.746;19.678;2023-06-14T03:11:07;16.30;99.90
42979;DHT22;28616;44.746;19.678;2023-06-14T03:13:34;16.40;99.90
42979;DHT22;28616;44.746;19.678;2023-06-14T03:16:01;16.40;99.90
42979;DHT22;28616;44.746;19.678;2023-06-14T03:18:29;16.40;99.90
42979;DHT22;28616;44.746;19.678;2023-06-14T03:20:56;16.40;99.90
42979;DHT22;28616;44.746;19.678;2023-06-14T03:23:24;16.40;99.90
42979;DHT22;28616;44.746;19.678;2023-06-14T03:25:51;16.40;99.90
42979;DHT22;28616;44.746;19.678;2023-06-14T03:28:17;16.30;99.90
42979;DHT22;28616;44.746;19.678;2023-06-14T03:30:43;16.30;99.90
42979;DHT22;28616;44.746;19.678;2023-06-14T03:33:08;16.30;99.90
42979;DHT22;28616;44.746;19.678;2023-06-14T03:35:34;16.40;99.90
42979;DHT22;28616;44.746;19.678;2023-06-14T03:38:00;16.40;99.90
42979;DHT22;28616;44.746;19.678;2023-06-14T03:40:28;16.40;99.90
42979;DHT22;28616;44.746;19.678;2023-06-14T03:42:55;16.40;99.90
42979;DHT22;28616;44.746;19.678;2023-06-14T03:45:21;16.40;99.90
42979;DHT22;28616;44.746;19.678;2023-06-14T03:47:47;16.40;99.90
42979;DHT22;28616;44.746;19.678;2023-06-14T03:50:13;16.40;99.90
42979;DHT22;28616;44.746;19.678;2023-06-14T03:52:39;16.50;99.90
42979;DHT22;28616;44.746;19.678;2023-06-14T03:55:08;16.50;99.90
42979;DHT22;28616;44.746;19.678;2023-06-14T03:57:34;16.60;99.90
42979;DHT22;28616;44.746;19.678;2023-06-14T04:00:00;16.60;99.90
42979;DHT22;28616;44.746;19.678;2023-06-14T04:02:25;16.70;99.90
42979;DHT22;28616;44.746;19.678;2023-06-14T04:04:54;16.70;99.90
42979;DHT22;28616;44.746;19.678;2023-06-14T04:07:20;16.80;99.90
42979;DHT22;28616;44.746;19.678;2023-06-14T04:09:46;16.80;99.90
42979;DHT22;28616;44.746;19.678;2023-06-14T04:12:12;16.90;99.90
42979;DHT22;28616;44.746;19.678;2023-06-14T04:14:39;16.90;99.90
42979;DHT22;28616;44.746;19.678;2023-06-14T04:17:06;17.00;99.90
42979;DHT22;28616;44.746;19.678;2023-06-14T04:19:32;17.00;99.90
42979;DHT22;28616;44.746;19.678;2023-06-14T04:21:58;17.00;99.90
42979;DHT22;28616;44.746;19.678;2023-06-14T04:24:26;17.00;99.90
42979;DHT22;28616;44.746;19.678;2023-06-14T04:26:54;17.10;99.90
42979;DHT22;28616;44.746;19.678;2023-06-14T04:29:20;17.00;99.90
42979;DHT22;28616;44.746;19.678;2023-06-14T04:31:46;17.00;99.90
42979;DHT22;28616;44.746;19.678;2023-06-14T04:34:12;17.00;99.90
42979;DHT22;28616;44.746;19.678;2023-06-14T04:36:42;17.00;99.90
42979;DHT22;28616;44.746;19.678;2023-06-14T04:39:20;17.00;99.90
42979;DHT22;28616;44.746;19.678;2023-06-14T04:41:47;17.10;99.90
42979;DHT22;28616;44.746;19.678;2023-06-14T04:44:13;17.10;99.90
42979;DHT22;28616;44.746;19.678;2023-06-14T04:46:39;17.10;99.90
42979;DHT22;28616;44.746;19.678;2023-06-14T04:49:13;17.20;99.90
42979;DHT22;28616;44.746;19.678;2023-06-14T04:51:41;17.20;99.90
42979;DHT22;28616;44.746;19.678;2023-06-14T04:54:08;17.30;99.90
42979;DHT22;28616;44.746;19.678;2023-06-14T04:56:43;17.30;99.90
42979;DHT22;28616;44.746;19.678;2023-06-14T04:59:10;17.30;99.90
42979;DHT22;28616;44.746;19.678;2023-06-14T05:01:40;17.40;99.90
42979;DHT22;28616;44.746;19.678;2023-06-14T05:04:06;17.40;99.90
42979;DHT22;28616;44.746;19.678;2023-06-14T05:06:32;17.50;99.90
42979;DHT22;28616;44.746;19.678;2023-06-14T05:08:58;17.70;99.90
42979;DHT22;28616;44.746;19.678;2023-06-14T05:11:24;17.80;99.90
42979;DHT22;28616;44.746;19.678;2023-06-14T05:13:50;17.80;99.90
42979;DHT22;28616;44.746;19.678;2023-06-14T05:16:17;18.00;99.90
42979;DHT22;28616;44.746;19.678;2023-06-14T05:18:45;18.00;99.90
42979;DHT22;28616;44.746;19.678;2023-06-14T05:21:13;18.00;99.90
42979;DHT22;28616;44.746;19.678;2023-06-14T05:23:38;18.10;99.90
42979;DHT22;28616;44.746;19.678;2023-06-14T05:26:04;18.10;99.90
42979;DHT22;28616;44.746;19.678;2023-06-14T05:28:32;18.20;99.90
42979;DHT22;28616;44.746;19.678;2023-06-14T05:30:57;18.20;99.90
42979;DHT22;28616;44.746;19.678;2023-06-14T05:33:23;18.10;99.90
42979;DHT22;28616;44.746;19.678;2023-06-14T05:35:49;18.20;99.90
42979;DHT22;28616;44.746;19.678;2023-06-14T05:38:15;18.30;99.90
42979;DHT22;28616;44.746;19.678;2023-06-14T05:40:41;18.40;99.90
42979;DHT22;28616;44.746;19.678;2023-06-14T05:43:07;18.40;99.90
42979;DHT22;28616;44.746;19.678;2023-06-14T05:45:32;18.40;99.90
42979;DHT22;28616;44.746;19.678;2023-06-14T05:47:58;18.40;99.90
42979;DHT22;28616;44.746;19.678;2023-06-14T05:50:24;18.50;99.90
42979;DHT22;28616;44.746;19.678;2023-06-14T05:52:50;18.60;99.90
42979;DHT22;28616;44.746;19.678;2023-06-14T05:55:17;18.60;99.90
42979;DHT22;28616;44.746;19.678;2023-06-14T05:57:43;18.60;99.90
42979;DHT22;28616;44.746;19.678;2023-06-14T06:00:09;18.70;99.90
42979;DHT22;28616;44.746;19.678;2023-06-14T06:02:42;18.80;99.90
42979;DHT22;28616;44.746;19.678;2023-06-14T06:05:12;18.90;99.90
42979;DHT22;28616;44.746;19.678;2023-06-14T06:07:38;19.00;99.90
42979;DHT22;28616;44.746;19.678;2023-06-14T06:10:05;19.10;99.90
42979;DHT22;28616;44.746;19.678;2023-06-14T06:12:32;19.20;99.90
42979;DHT22;28616;44.746;19.678;2023-06-14T06:14:58;19.30;99.90
42979;DHT22;28616;44.746;19.678;2023-06-14T06:17:25;19.30;99.90
42979;DHT22;28616;44.746;19.678;2023-06-14T06:19:51;19.40;99.90
42979;DHT22;28616;44.746;19.678;2023-06-14T06:22:17;19.50;99.90
42979;DHT22;28616;44.746;19.678;2023-06-14T06:24:42;19.60;99.90
42979;DHT22;28616;44.746;19.678;2023-06-14T06:27:08;19.80;99.90
42979;DHT22;28616;44.746;19.678;2023-06-14T06:29:35;20.00;99.90
42979;DHT22;28616;44.746;19.678;2023-06-14T06:32:01;20.10;99.90
42979;DHT22;28616;44.746;19.678;2023-06-14T06:34:27;20.30;99.90
42979;DHT22;28616;44.746;19.678;2023-06-14T06:36:53;20.40;99.90
42979;DHT22;28616;44.746;19.678;2023-06-14T06:39:19;20.50;99.90
42979;DHT22;28616;44.746;19.678;2023-06-14T06:41:45;20.80;99.90
42979;DHT22;28616;44.746;19.678;2023-06-14T06:44:10;21.00;99.90
42979;DHT22;28616;44.746;19.678;2023-06-14T06:46:36;21.10;99.90
42979;DHT22;28616;44.746;19.678;2023-06-14T06:49:09;21.10;99.90
42979;DHT22;28616;44.746;19.678;2023-06-14T06:51:37;21.10;99.90
42979;DHT22;28616;44.746;19.678;2023-06-14T06:54:03;21.10;99.90
42979;DHT22;28616;44.746;19.678;2023-06-14T06:56:29;21.10;99.90
42979;DHT22;28616;44.746;19.678;2023-06-14T06:58:54;21.10;99.90
42979;DHT22;28616;44.746;19.678;2023-06-14T07:01:20;21.00;99.90
42979;DHT22;28616;44.746;19.678;2023-06-14T07:03:46;20.90;99.90
42979;DHT22;28616;44.746;19.678;2023-06-14T07:06:12;20.90;99.90
42979;DHT22;28616;44.746;19.678;2023-06-14T07:08:38;21.00;99.90
42979;DHT22;28616;44.746;19.678;2023-06-14T07:11:05;21.00;99.90
42979;DHT22;28616;44.746;19.678;2023-06-14T07:13:31;21.10;99.90
42979;DHT22;28616;44.746;19.678;2023-06-14T07:16:00;21.20;99.90
42979;DHT22;28616;44.746;19.678;2023-06-14T07:18:26;21.30;99.90
42979;DHT22;28616;44.746;19.678;2023-06-14T07:20:53;21.30;99.90
42979;DHT22;28616;44.746;19.678;2023-06-14T07:25:46;21.40;99.90
42979;DHT22;28616;44.746;19.678;2023-06-14T07:28:12;21.40;99.90
42979;DHT22;28616;44.746;19.678;2023-06-14T07:30:38;21.40;99.90
42979;DHT22;28616;44.746;19.678;2023-06-14T07:33:04;21.40;99.90
42979;DHT22;28616;44.746;19.678;2023-06-14T07:35:29;21.60;99.90
42979;DHT22;28616;44.746;19.678;2023-06-14T07:37:55;21.60;99.90
42979;DHT22;28616;44.746;19.678;2023-06-14T07:40:21;21.60;99.90
42979;DHT22;28616;44.746;19.678;2023-06-14T07:42:47;21.50;99.10
42979;DHT22;28616;44.746;19.678;2023-06-14T07:45:16;21.50;99.90
42979;DHT22;28616;44.746;19.678;2023-06-14T07:47:42;21.60;99.00
42979;DHT22;28616;44.746;19.678;2023-06-14T09:33:35;23.00;77.40
42979;DHT22;28616;44.746;19.678;2023-06-14T09:36:01;22.90;75.90
42979;DHT22;28616;44.746;19.678;2023-06-14T09:38:27;22.80;70.80
42979;DHT22;28616;44.746;19.678;2023-06-14T09:40:56;22.80;70.80
42979;DHT22;28616;44.746;19.678;2023-06-14T09:43:22;22.70;74.60
42979;DHT22;28616;44.746;19.678;2023-06-14T09:45:48;22.70;73.60
42979;DHT22;28616;44.746;19.678;2023-06-14T09:48:16;22.80;74.50
42979;DHT22;28616;44.746;19.678;2023-06-14T09:50:46;22.80;67.40
42979;DHT22;28616;44.746;19.678;2023-06-14T09:53:14;22.90;68.50
42979;DHT22;28616;44.746;19.678;2023-06-14T09:55:41;23.20;70.10
42979;DHT22;28616;44.746;19.678;2023-06-14T09:58:09;23.30;72.30
42979;DHT22;28616;44.746;19.678;2023-06-14T10:03:13;23.50;70.20
42979;DHT22;28616;44.746;19.678;2023-06-14T10:05:45;23.90;73.20
42979;DHT22;28616;44.746;19.678;2023-06-14T10:08:13;24.20;65.80
42979;DHT22;28616;44.746;19.678;2023-06-14T10:10:39;24.20;65.10
42979;DHT22;28616;44.746;19.678;2023-06-14T10:13:06;24.20;66.40
42979;DHT22;28616;44.746;19.678;2023-06-14T10:23:48;24.10;65.00
42979;DHT22;28616;44.746;19.678;2023-06-14T10:26:22;24.10;66.90
42979;DHT22;28616;44.746;19.678;2023-06-14T10:28:58;24.10;60.40
42979;DHT22;28616;44.746;19.678;2023-06-14T10:31:46;24.20;63.90
42979;DHT22;28616;44.746;19.678;2023-06-14T10:34:20;24.10;61.70
42979;DHT22;28616;44.746;19.678;2023-06-14T10:37:06;24.10;64.30
42979;DHT22;28616;44.746;19.678;2023-06-14T10:39:42;24.00;62.30
42979;DHT22;28616;44.746;19.678;2023-06-14T10:42:10;23.80;63.10
42979;DHT22;28616;44.746;19.678;2023-06-14T10:44:51;23.70;62.00
42979;DHT22;28616;44.746;19.678;2023-06-14T10:47:23;23.60;58.60
42979;DHT22;28616;44.746;19.678;2023-06-14T10:52:28;23.50;61.50
42979;DHT22;28616;44.746;19.678;2023-06-14T10:55:08;23.40;65.90
42979;DHT22;28616;44.746;19.678;2023-06-14T10:57:43;23.40;63.70
42979;DHT22;28616;44.746;19.678;2023-06-14T11:00:12;23.50;66.20
42979;DHT22;28616;44.746;19.678;2023-06-14T11:05:27;23.50;65.90
42979;DHT22;28616;44.746;19.678;2023-06-14T11:10:50;23.60;59.90
42979;DHT22;28616;44.746;19.678;2023-06-14T11:13:17;23.70;61.10
42979;DHT22;28616;44.746;19.678;2023-06-14T11:15:47;23.90;67.90
42979;DHT22;28616;44.746;19.678;2023-06-14T11:18:13;24.00;66.80
42979;DHT22;28616;44.746;19.678;2023-06-14T11:20:40;24.00;62.90
42979;DHT22;28616;44.746;19.678;2023-06-14T11:23:05;24.10;61.20
42979;DHT22;28616;44.746;19.678;2023-06-14T11:25:31;24.10;64.80
42979;DHT22;28616;44.746;19.678;2023-06-14T11:27:58;24.20;63.90
42979;DHT22;28616;44.746;19.678;2023-06-14T11:30:24;24.40;64.10
42979;DHT22;28616;44.746;19.678;2023-06-14T11:32:54;24.40;63.00
42979;DHT22;28616;44.746;19.678;2023-06-14T11:35:24;24.50;64.10
42979;DHT22;28616;44.746;19.678;2023-06-14T11:37:54;24.50;62.60
42979;DHT22;28616;44.746;19.678;2023-06-14T11:40:26;24.50;61.30
42979;DHT22;28616;44.746;19.678;2023-06-14T11:43:00;24.60;60.70
42979;DHT22;28616;44.746;19.678;2023-06-14T11:45:27;24.70;58.00
42979;DHT22;28616;44.746;19.678;2023-06-14T11:47:55;24.80;61.90
42979;DHT22;28616;44.746;19.678;2023-06-14T11:50:25;24.60;60.90
42979;DHT22;28616;44.746;19.678;2023-06-14T11:52:55;24.70;64.20
42979;DHT22;28616;44.746;19.678;2023-06-14T11:55:22;24.90;61.20
42979;DHT22;28616;44.746;19.678;2023-06-14T11:57:48;25.20;59.80
42979;DHT22;28616;44.746;19.678;2023-06-14T16:17:37;23.50;60.80
42979;DHT22;28616;44.746;19.678;2023-06-14T16:20:03;23.50;60.90
42979;DHT22;28616;44.746;19.678;2023-06-14T16:22:29;23.40;62.70
42979;DHT22;28616;44.746;19.678;2023-06-14T16:24:55;23.40;61.00
42979;DHT22;28616;44.746;19.678;2023-06-14T16:27:21;23.30;63.00
42979;DHT22;28616;44.746;19.678;2023-06-14T16:29:47;23.30;62.40
42979;DHT22;28616;44.746;19.678;2023-06-14T16:32:14;23.30;62.70
42979;DHT22;28616;44.746;19.678;2023-06-14T16:34:39;23.20;64.20
42979;DHT22;28616;44.746;19.678;2023-06-14T16:37:06;23.20;61.90
42979;DHT22;28616;44.746;19.678;2023-06-14T16:39:31;23.10;65.20
42979;DHT22;28616;44.746;19.678;2023-06-14T16:41:57;23.10;63.50
42979;DHT22;28616;44.746;19.678;2023-06-14T16:44:23;23.00;64.10
42979;DHT22;28616;44.746;19.678;2023-06-14T16:46:50;23.00;66.90
42979;DHT22;28616;44.746;19.678;2023-06-14T16:49:17;22.90;65.00
42979;DHT22;28616;44.746;19.678;2023-06-14T16:51:42;22.90;66.00
42979;DHT22;28616;44.746;19.678;2023-06-14T16:54:08;22.90;66.90
42979;DHT22;28616;44.746;19.678;2023-06-14T16:56:34;22.90;65.00
42979;DHT22;28616;44.746;19.678;2023-06-14T16:59:00;22.80;66.30
42979;DHT22;28616;44.746;19.678;2023-06-14T17:01:26;22.80;67.20
42979;DHT22;28616;44.746;19.678;2023-06-14T17:03:53;22.80;64.30
42979;DHT22;28616;44.746;19.678;2023-06-14T17:06:19;22.70;64.50
42979;DHT22;28616;44.746;19.678;2023-06-14T17:08:49;22.70;65.70
42979;DHT22;28616;44.746;19.678;2023-06-14T17:11:16;22.70;65.40
42979;DHT22;28616;44.746;19.678;2023-06-14T17:13:44;22.60;65.50
42979;DHT22;28616;44.746;19.678;2023-06-14T17:16:10;22.60;65.50
42979;DHT22;28616;44.746;19.678;2023-06-14T17:18:37;22.60;65.70
42979;DHT22;28616;44.746;19.678;2023-06-14T17:21:03;22.60;64.50
42979;DHT22;28616;44.746;19.678;2023-06-14T17:23:29;22.70;66.70
42979;DHT22;28616;44.746;19.678;2023-06-14T17:25:55;22.70;68.00
42979;DHT22;28616;44.746;19.678;2023-06-14T17:28:21;22.70;68.00
42979;DHT22;28616;44.746;19.678;2023-06-14T17:30:47;22.70;67.70
42979;DHT22;28616;44.746;19.678;2023-06-14T17:33:12;22.60;65.00
42979;DHT22;28616;44.746;19.678;2023-06-14T17:35:38;22.60;68.50
42979;DHT22;28616;44.746;19.678;2023-06-14T17:38:04;22.60;66.60
42979;DHT22;28616;44.746;19.678;2023-06-14T17:40:30;22.60;68.80
42979;DHT22;28616;44.746;19.678;2023-06-14T17:42:58;22.50;67.40
42979;DHT22;28616;44.746;19.678;2023-06-14T17:45:24;22.50;66.90
42979;DHT22;28616;44.746;19.678;2023-06-14T17:47:50;22.40;68.00
42979;DHT22;28616;44.746;19.678;2023-06-14T17:50:15;22.40;71.20
42979;DHT22;28616;44.746;19.678;2023-06-14T17:52:41;22.40;70.30
42979;DHT22;28616;44.746;19.678;2023-06-14T17:55:09;22.40;68.60
42979;DHT22;28616;44.746;19.678;2023-06-14T17:57:35;22.30;67.80
42979;DHT22;28616;44.746;19.678;2023-06-14T18:00:01;22.30;68.00
42979;DHT22;28616;44.746;19.678;2023-06-14T18:02:27;22.20;68.60
42979;DHT22;28616;44.746;19.678;2023-06-14T18:04:53;22.20;68.40
42979;DHT22;28616;44.746;19.678;2023-06-14T18:07:19;22.10;66.70
42979;DHT22;28616;44.746;19.678;2023-06-14T18:09:45;22.10;68.70
42979;DHT22;28616;44.746;19.678;2023-06-14T18:12:11;22.10;70.00
42979;DHT22;28616;44.746;19.678;2023-06-14T18:14:37;22.00;70.50
42979;DHT22;28616;44.746;19.678;2023-06-14T18:17:03;22.00;70.70
42979;DHT22;28616;44.746;19.678;2023-06-14T18:19:29;22.00;69.00
42979;DHT22;28616;44.746;19.678;2023-06-14T18:21:56;22.00;70.40
42979;DHT22;28616;44.746;19.678;2023-06-14T18:24:22;21.90;71.10
42979;DHT22;28616;44.746;19.678;2023-06-14T18:26:48;21.90;69.70
42979;DHT22;28616;44.746;19.678;2023-06-14T18:29:14;21.80;70.20
42979;DHT22;28616;44.746;19.678;2023-06-14T18:31:41;21.80;71.60
42979;DHT22;28616;44.746;19.678;2023-06-14T18:34:07;21.80;70.60
42979;DHT22;28616;44.746;19.678;2023-06-14T18:36:34;21.80;72.00
42979;DHT22;28616;44.746;19.678;2023-06-14T18:39:03;21.70;73.50
42979;DHT22;28616;44.746;19.678;2023-06-14T18:41:28;21.70;74.60
42979;DHT22;28616;44.746;19.678;2023-06-14T18:43:54;21.70;73.00
42979;DHT22;28616;44.746;19.678;2023-06-14T18:46:22;21.60;76.40
42979;DHT22;28616;44.746;19.678;2023-06-14T18:48:48;21.60;73.30
42979;DHT22;28616;44.746;19.678;2023-06-14T18:51:14;21.60;75.30
42979;DHT22;28616;44.746;19.678;2023-06-14T18:53:39;21.50;75.20
42979;DHT22;28616;44.746;19.678;2023-06-14T18:56:06;21.50;75.70
42979;DHT22;28616;44.746;19.678;2023-06-14T18:58:32;21.50;76.70
42979;DHT22;28616;44.746;19.678;2023-06-14T19:00:58;21.50;75.50
42979;DHT22;28616;44.746;19.678;2023-06-14T19:03:24;21.50;79.20
42979;DHT22;28616;44.746;19.678;2023-06-14T19:05:50;21.50;78.00
42979;DHT22;28616;44.746;19.678;2023-06-14T19:08:16;21.50;77.20
42979;DHT22;28616;44.746;19.678;2023-06-14T19:10:42;21.40;80.70
42979;DHT22;28616;44.746;19.678;2023-06-14T19:13:08;21.40;77.30
42979;DHT22;28616;44.746;19.678;2023-06-14T19:15:37;21.40;78.90
42979;DHT22;28616;44.746;19.678;2023-06-14T19:18:03;21.30;77.80
42979;DHT22;28616;44.746;19.678;2023-06-14T19:20:31;21.40;77.30
42979;DHT22;28616;44.746;19.678;2023-06-14T19:22:57;21.30;77.90
42979;DHT22;28616;44.746;19.678;2023-06-14T19:25:23;21.30;80.00
42979;DHT22;28616;44.746;19.678;2023-06-14T19:27:49;21.30;76.90
42979;DHT22;28616;44.746;19.678;2023-06-14T19:30:16;21.30;80.30
42979;DHT22;28616;44.746;19.678;2023-06-14T19:32:42;21.30;79.30
42979;DHT22;28616;44.746;19.678;2023-06-14T19:35:08;21.30;79.90
42979;DHT22;28616;44.746;19.678;2023-06-14T19:37:35;21.30;81.20
42979;DHT22;28616;44.746;19.678;2023-06-14T19:40:02;21.30;82.20
42979;DHT22;28616;44.746;19.678;2023-06-14T19:42:28;21.20;83.20
42979;DHT22;28616;44.746;19.678;2023-06-14T19:44:54;21.30;83.60
42979;DHT22;28616;44.746;19.678;2023-06-14T19:47:20;21.20;84.20
42979;DHT22;28616;44.746;19.678;2023-06-14T19:49:45;21.20;84.40
42979;DHT22;28616;44.746;19.678;2023-06-14T19:52:11;21.20;86.50
42979;DHT22;28616;44.746;19.678;2023-06-14T19:54:37;21.10;85.20
42979;DHT22;28616;44.746;19.678;2023-06-14T19:57:03;21.10;85.10
42979;DHT22;28616;44.746;19.678;2023-06-14T19:59:29;21.10;87.10
42979;DHT22;28616;44.746;19.678;2023-06-14T20:01:57;21.00;87.50
42979;DHT22;28616;44.746;19.678;2023-06-14T20:04:24;21.10;88.90
42979;DHT22;28616;44.746;19.678;2023-06-14T20:06:49;21.00;86.40
42979;DHT22;28616;44.746;19.678;2023-06-14T20:09:21;21.00;87.00
42979;DHT22;28616;44.746;19.678;2023-06-14T20:11:47;21.00;87.90
42979;DHT22;28616;44.746;19.678;2023-06-14T20:14:12;20.90;87.90
42979;DHT22;28616;44.746;19.678;2023-06-14T20:16:38;20.90;89.10
42979;DHT22;28616;44.746;19.678;2023-06-14T20:19:04;20.90;89.70
42979;DHT22;28616;44.746;19.678;2023-06-14T20:21:30;20.80;90.20
42979;DHT22;28616;44.746;19.678;2023-06-14T20:23:56;20.80;91.10
42979;DHT22;28616;44.746;19.678;2023-06-14T20:26:22;20.80;91.80
42979;DHT22;28616;44.746;19.678;2023-06-14T20:28:47;20.70;92.70
42979;DHT22;28616;44.746;19.678;2023-06-14T20:31:17;20.70;94.80
42979;DHT22;28616;44.746;19.678;2023-06-14T20:33:44;20.70;98.00
42979;DHT22;28616;44.746;19.678;2023-06-14T20:36:11;20.60;99.90
42979;DHT22;28616;44.746;19.678;2023-06-14T20:38:37;20.60;99.90
42979;DHT22;28616;44.746;19.678;2023-06-14T20:41:04;20.60;99.90
42979;DHT22;28616;44.746;19.678;2023-06-14T20:43:30;20.50;99.90
42979;DHT22;28616;44.746;19.678;2023-06-14T20:45:56;20.50;99.90
42979;DHT22;28616;44.746;19.678;2023-06-14T20:48:23;20.50;99.90
42979;DHT22;28616;44.746;19.678;2023-06-14T20:50:50;20.50;99.90
42979;DHT22;28616;44.746;19.678;2023-06-14T20:53:16;20.50;99.90
42979;DHT22;28616;44.746;19.678;2023-06-14T20:55:42;20.50;99.90
42979;DHT22;28616;44.746;19.678;2023-06-14T20:58:08;20.50;99.90
42979;DHT22;28616;44.746;19.678;2023-06-14T21:00:34;20.50;99.90
42979;DHT22;28616;44.746;19.678;2023-06-14T21:03:05;20.50;99.90
42979;DHT22;28616;44.746;19.678;2023-06-14T21:05:32;20.50;99.90
42979;DHT22;28616;44.746;19.678;2023-06-14T21:07:58;20.40;99.90
42979;DHT22;28616;44.746;19.678;2023-06-14T21:10:25;20.40;99.90
42979;DHT22;28616;44.746;19.678;2023-06-14T21:12:56;20.40;99.90
42979;DHT22;28616;44.746;19.678;2023-06-14T21:15:23;20.40;99.90
42979;DHT22;28616;44.746;19.678;2023-06-14T21:17:51;20.40;99.90
42979;DHT22;28616;44.746;19.678;2023-06-14T21:20:18;20.40;99.90
42979;DHT22;28616;44.746;19.678;2023-06-14T21:22:44;20.40;99.90
42979;DHT22;28616;44.746;19.678;2023-06-14T21:25:10;20.40;99.90
42979;DHT22;28616;44.746;19.678;2023-06-14T21:27:35;20.40;99.90
42979;DHT22;28616;44.746;19.678;2023-06-14T21:30:04;20.30;99.90
42979;DHT22;28616;44.746;19.678;2023-06-14T21:32:30;20.30;99.90
42979;DHT22;28616;44.746;19.678;2023-06-14T21:34:56;20.30;99.90
42979;DHT22;28616;44.746;19.678;2023-06-14T21:37:22;20.30;99.90
42979;DHT22;28616;44.746;19.678;2023-06-14T21:39:47;20.30;99.90